Terminal Aerodrome Forecast
Issued by NWS Austin/San Antonio, TX

Home | Current Version | Previous Version | Text Only | Print | Product List | Glossary On
Versions: 1 2 3 4 5 6 7 8 9 10 11 12 13 14 15 16 17 18 19
000
FTUS44 KEWX 072331
TAFDRT
TAF
KDRT 072331Z 0800/0824 14008KT P6SM FEW050 BKN200
     FM080200 11009KT P6SM SCT100 BKN250
     FM081200 12010KT P6SM BKN020
     FM081600 13015KT P6SM BKN025
     FM081800 14015G25KT P6SM SCT050 BKN250=

USA.gov is the U.S. government's official web portal to all federal, state and local government web resources and services.